createdAt,value
2019-03-15T00:00:32.613Z,40.75
2019-03-15T00:01:39.290Z,41.26
2019-03-15T00:02:45.017Z,40.99
2019-03-15T00:03:50.628Z,41.35
2019-03-15T00:04:55.579Z,41.31
2019-03-15T00:06:00.972Z,41.40
2019-03-15T00:07:05.651Z,40.86
2019-03-15T00:08:10.888Z,41.18
2019-03-15T00:09:15.654Z,40.96
2019-03-15T00:10:20.675Z,40.68
2019-03-15T00:11:25.395Z,40.87
2019-03-15T00:12:30.083Z,40.49
2019-03-15T00:13:35.373Z,40.21
2019-03-15T00:14:40.370Z,40.38
2019-03-15T00:15:47.666Z,40.54
2019-03-15T00:16:52.979Z,40.14
2019-03-15T00:17:58.222Z,40.29
2019-03-15T00:19:03.583Z,40.45
2019-03-15T00:20:08.852Z,40.33
2019-03-15T00:21:14.328Z,40.25
2019-03-15T00:22:19.024Z,40.17
2019-03-15T00:23:24.040Z,40.61
2019-03-15T00:24:28.739Z,40.50
2019-03-15T00:25:33.800Z,40.17
2019-03-15T00:26:39.109Z,40.04
2019-03-15T00:27:45.627Z,40.03
2019-03-15T00:28:50.332Z,40.27
2019-03-15T00:29:55.590Z,40.20
2019-03-15T00:31:00.857Z,39.96
2019-03-15T00:32:05.596Z,39.85
2019-03-15T00:33:10.451Z,39.72
2019-03-15T00:34:16.599Z,40.61
2019-03-15T00:35:22.277Z,39.97
2019-03-15T00:36:27.314Z,39.91
2019-03-15T00:37:32.858Z,40.11
2019-03-15T00:38:37.918Z,40.34
2019-03-15T00:39:43.650Z,40.45
2019-03-15T00:40:48.810Z,40.10
2019-03-15T00:41:53.794Z,40.30
2019-03-15T00:42:59.074Z,39.75
2019-03-15T00:44:04.093Z,39.75
2019-03-15T00:45:09.313Z,39.81
2019-03-15T00:46:14.620Z,39.86
2019-03-15T00:47:19.661Z,39.94
2019-03-15T00:48:24.894Z,39.50
2019-03-15T00:49:29.650Z,39.65
2019-03-15T00:50:35.356Z,39.98
2019-03-15T00:51:40.676Z,40.11
2019-03-15T00:52:46.482Z,40.06
2019-03-15T00:53:54.081Z,39.79
2019-03-15T00:54:58.461Z,39.72
2019-03-15T00:56:03.360Z,40.10
2019-03-15T00:57:08.657Z,40.49
2019-03-15T00:58:13.692Z,40.69
2019-03-15T00:59:19.219Z,41.33
2019-03-15T01:00:24.589Z,40.70
2019-03-15T01:01:29.916Z,40.73
2019-03-15T01:02:34.935Z,40.16
2019-03-15T01:03:39.710Z,40.32
2019-03-15T01:04:44.388Z,41.15
2019-03-15T01:05:49.368Z,41.23
2019-03-15T01:06:54.315Z,41.43
2019-03-15T01:07:59.657Z,41.42
2019-03-15T01:09:04.937Z,40.92
2019-03-15T01:10:10.020Z,41.35
2019-03-15T01:11:15.273Z,40.77
2019-03-15T01:12:20.552Z,40.51
2019-03-15T01:13:26.189Z,40.67
2019-03-15T01:14:31.305Z,40.42
2019-03-15T01:15:35.786Z,39.88
2019-03-15T01:16:41.269Z,39.95
2019-03-15T01:17:46.515Z,39.73
2019-03-15T01:18:51.586Z,39.95
2019-03-15T01:19:57.139Z,40.30
2019-03-15T01:21:01.971Z,40.78
2019-03-15T01:22:07.259Z,40.11
2019-03-15T01:23:12.518Z,39.87
2019-03-15T01:24:18.098Z,39.95
2019-03-15T01:25:23.166Z,39.69
2019-03-15T01:26:28.437Z,39.38
2019-03-15T01:27:33.160Z,40.11
2019-03-15T01:28:38.110Z,39.75
2019-03-15T01:29:42.866Z,39.87
2019-03-15T01:30:47.557Z,39.47
2019-03-15T01:31:52.288Z,39.27
2019-03-15T01:32:57.279Z,39.95
2019-03-15T01:34:02.319Z,39.65
2019-03-15T01:35:07.075Z,40.02
2019-03-15T01:36:12.362Z,39.75
2019-03-15T01:37:17.639Z,40.11
2019-03-15T01:38:23.540Z,40.17
2019-03-15T01:39:28.947Z,40.21
2019-03-15T01:40:33.722Z,40.05
2019-03-15T01:41:38.706Z,39.74
2019-03-15T01:42:43.755Z,39.70
2019-03-15T01:43:48.726Z,39.34
2019-03-15T01:44:53.717Z,40.10
2019-03-15T01:45:59.028Z,39.67
2019-03-15T01:47:03.764Z,40.65
2019-03-15T01:48:11.249Z,39.95
2019-03-15T01:49:16.311Z,39.62
2019-03-15T01:50:21.875Z,40.50
2019-03-15T01:51:27.228Z,39.80
2019-03-15T01:52:33.484Z,39.88
2019-03-15T01:53:39.097Z,40.16
2019-03-15T01:54:44.451Z,40.46
2019-03-15T01:55:49.729Z,40.59
2019-03-15T01:56:55.112Z,40.71
2019-03-15T01:58:00.643Z,40.87
2019-03-15T01:59:05.366Z,40.63
2019-03-15T02:00:10.914Z,40.71
2019-03-15T02:01:16.420Z,41.59
2019-03-15T02:02:22.328Z,41.34
2019-03-15T02:03:27.343Z,40.74
2019-03-15T02:04:32.867Z,40.91
2019-03-15T02:05:37.903Z,40.74
2019-03-15T02:06:43.743Z,40.77
2019-03-15T02:07:48.888Z,40.66
2019-03-15T02:08:53.982Z,40.81
2019-03-15T02:09:59.210Z,40.66
2019-03-15T02:11:04.494Z,40.47
2019-03-15T02:12:09.616Z,39.90
2019-03-15T02:13:14.601Z,40.15
2019-03-15T02:14:19.286Z,40.18
2019-03-15T02:15:24.276Z,40.20
2019-03-15T02:16:29.452Z,40.29
2019-03-15T02:17:34.825Z,39.87
2019-03-15T02:18:40.614Z,40.12
2019-03-15T02:19:46.239Z,39.88
2019-03-15T02:20:50.967Z,40.47
2019-03-15T02:21:55.924Z,39.81
2019-03-15T02:23:01.109Z,40.12
2019-03-15T02:24:05.968Z,39.73
2019-03-15T02:25:10.751Z,40.33
2019-03-15T02:26:15.543Z,40.14
2019-03-15T02:27:20.792Z,39.66
2019-03-15T02:28:25.825Z,39.50
2019-03-15T02:29:31.446Z,39.70
2019-03-15T02:30:36.212Z,39.36
2019-03-15T02:31:40.889Z,39.96
2019-03-15T02:32:46.419Z,39.60
2019-03-15T02:33:51.497Z,39.47
2019-03-15T02:34:56.757Z,39.57
2019-03-15T02:36:01.757Z,39.69
2019-03-15T02:37:07.029Z,39.64
2019-03-15T02:38:12.214Z,40.06
2019-03-15T02:39:17.426Z,40.24
2019-03-15T02:40:22.987Z,39.58
2019-03-15T02:41:27.780Z,39.54
2019-03-15T02:42:33.026Z,39.12
2019-03-15T02:43:37.731Z,39.29
2019-03-15T02:44:43.097Z,39.27
2019-03-15T02:45:47.824Z,39.80
2019-03-15T02:46:53.079Z,39.60
2019-03-15T02:47:58.619Z,39.11
2019-03-15T02:49:03.414Z,39.41
2019-03-15T02:50:08.281Z,39.56
2019-03-15T02:51:13.587Z,39.15
2019-03-15T02:52:18.265Z,40.02
2019-03-15T02:53:22.965Z,39.08
2019-03-15T02:54:27.717Z,39.06
2019-03-15T02:55:32.677Z,39.30
2019-03-15T02:56:38.351Z,38.30
2019-03-15T02:57:43.172Z,38.64
2019-03-15T02:58:48.422Z,38.71
2019-03-15T02:59:53.928Z,38.57
2019-03-15T03:00:58.704Z,38.47
2019-03-15T03:02:03.934Z,38.74
2019-03-15T03:03:10.289Z,38.58
2019-03-15T03:04:15.329Z,38.62
2019-03-15T03:05:19.994Z,38.58
2019-03-15T03:06:25.410Z,38.53
2019-03-15T03:07:30.918Z,38.65
2019-03-15T03:08:36.038Z,38.44
2019-03-15T03:09:42.415Z,38.52
2019-03-15T03:10:47.674Z,39.32
2019-03-15T03:11:52.364Z,39.09
2019-03-15T03:12:57.498Z,38.86
2019-03-15T03:14:02.256Z,39.17
2019-03-15T03:15:07.098Z,39.32
2019-03-15T03:16:12.157Z,40.01
2019-03-15T03:17:17.128Z,40.00
2019-03-15T03:18:23.172Z,39.55
2019-03-15T03:19:28.313Z,40.03
2019-03-15T03:20:33.737Z,39.53
2019-03-15T03:21:38.994Z,39.53
2019-03-15T03:22:44.663Z,40.47
2019-03-15T03:23:49.747Z,40.31
2019-03-15T03:24:54.882Z,39.85
2019-03-15T03:26:00.133Z,39.81
2019-03-15T03:27:05.107Z,39.79
2019-03-15T03:28:10.808Z,39.78
2019-03-15T03:29:15.833Z,39.96
2019-03-15T03:30:21.263Z,39.64
2019-03-15T03:31:26.843Z,39.82
2019-03-15T03:32:31.912Z,40.39
2019-03-15T03:33:36.855Z,40.47
2019-03-15T03:34:42.448Z,40.14
2019-03-15T03:35:47.863Z,41.05
2019-03-15T03:36:52.682Z,41.04
2019-03-15T03:37:58.450Z,40.33
2019-03-15T03:39:04.350Z,40.09
2019-03-15T03:40:09.249Z,40.05
2019-03-15T03:41:14.509Z,39.81
2019-03-15T03:42:20.191Z,40.41
2019-03-15T03:43:25.175Z,40.13
2019-03-15T03:44:30.455Z,40.78
2019-03-15T03:45:35.458Z,40.54
2019-03-15T03:46:40.743Z,40.11
2019-03-15T03:47:46.258Z,40.58
2019-03-15T03:48:51.026Z,40.33
2019-03-15T03:49:55.751Z,40.10
2019-03-15T03:51:00.896Z,39.80
2019-03-15T03:52:05.646Z,40.36
2019-03-15T03:53:10.475Z,40.74
2019-03-15T03:54:15.994Z,40.62
2019-03-15T03:55:21.221Z,40.24
2019-03-15T03:56:26.514Z,40.26
2019-03-15T03:57:31.495Z,40.29
2019-03-15T03:58:37.099Z,40.48
2019-03-15T03:59:43.233Z,39.76
2019-03-15T04:00:48.592Z,39.49
2019-03-15T04:01:53.601Z,40.50
2019-03-15T04:02:59.120Z,40.58
2019-03-15T04:04:04.558Z,39.88
2019-03-15T04:05:10.112Z,40.22
2019-03-15T04:06:15.939Z,40.37
2019-03-15T04:07:21.206Z,40.35
2019-03-15T04:08:26.184Z,39.99
2019-03-15T04:09:31.163Z,40.53
2019-03-15T04:10:35.725Z,40.60
2019-03-15T04:11:54.392Z,41.18
2019-03-15T04:12:48.105Z,41.02
2019-03-15T04:13:53.356Z,40.84
2019-03-15T04:14:58.629Z,40.69
2019-03-15T04:16:03.741Z,40.94
2019-03-15T04:17:08.463Z,41.40
2019-03-15T04:18:13.550Z,40.69
2019-03-15T04:19:18.899Z,41.22
2019-03-15T04:20:24.155Z,40.76
2019-03-15T04:21:29.232Z,41.03
2019-03-15T04:22:34.683Z,40.80
2019-03-15T04:23:40.134Z,41.16
2019-03-15T04:24:45.201Z,41.19
2019-03-15T04:25:50.440Z,40.99
2019-03-15T04:26:56.113Z,41.15
2019-03-15T04:28:01.697Z,41.53
2019-03-15T04:29:06.707Z,40.79
2019-03-15T04:30:11.321Z,40.53
2019-03-15T04:31:16.592Z,41.00
2019-03-15T04:32:21.875Z,41.01
2019-03-15T04:33:27.432Z,40.91
2019-03-15T04:34:32.598Z,41.37
2019-03-15T04:35:38.050Z,41.06
2019-03-15T04:36:43.373Z,41.88
2019-03-15T04:37:48.655Z,42.05
2019-03-15T04:38:53.365Z,41.60
2019-03-15T04:39:59.070Z,42.23
2019-03-15T04:41:03.806Z,41.67
2019-03-15T04:42:09.066Z,41.45
2019-03-15T04:43:17.052Z,41.03
2019-03-15T04:44:22.632Z,41.74
2019-03-15T04:45:27.927Z,42.34
2019-03-15T04:46:33.505Z,41.82
2019-03-15T04:47:38.476Z,42.41
2019-03-15T04:48:43.788Z,42.73
2019-03-15T04:49:49.085Z,42.80
2019-03-15T04:50:54.439Z,42.71
2019-03-15T04:51:59.445Z,43.11
2019-03-15T04:53:04.510Z,44.75
2019-03-15T04:54:09.315Z,44.57
2019-03-15T04:55:14.302Z,44.41
2019-03-15T04:56:19.718Z,44.74
2019-03-15T04:57:24.433Z,44.15
2019-03-15T04:58:29.719Z,44.72
2019-03-15T04:59:34.566Z,44.43
2019-03-15T05:00:39.554Z,44.47
2019-03-15T05:01:44.717Z,45.30
2019-03-15T05:02:49.527Z,45.60
2019-03-15T05:03:54.829Z,45.47
2019-03-15T05:05:00.430Z,44.91
2019-03-15T05:06:05.759Z,45.74
2019-03-15T05:07:11.301Z,45.52
2019-03-15T05:08:16.631Z,46.71
2019-03-15T05:09:22.360Z,46.33
2019-03-15T05:10:27.349Z,45.48
2019-03-15T05:11:32.315Z,45.32
2019-03-15T05:12:38.002Z,44.64
2019-03-15T05:13:43.696Z,44.29
2019-03-15T05:14:49.105Z,45.00
2019-03-15T05:15:54.375Z,44.38
2019-03-15T05:16:59.729Z,44.20
2019-03-15T05:18:04.976Z,44.08
2019-03-15T05:19:10.309Z,43.91
2019-03-15T05:20:15.354Z,43.75
2019-03-15T05:21:20.323Z,43.47
2019-03-15T05:22:25.667Z,43.42
2019-03-15T05:23:30.920Z,43.17
2019-03-15T05:24:36.790Z,43.61
2019-03-15T05:25:42.014Z,43.37
2019-03-15T05:26:47.601Z,43.31
2019-03-15T05:27:52.630Z,43.59
2019-03-15T05:28:57.691Z,43.46
2019-03-15T05:30:02.141Z,43.63
2019-03-15T05:31:06.849Z,43.68
2019-03-15T05:32:12.439Z,44.22
2019-03-15T05:33:17.998Z,44.57
2019-03-15T05:34:23.558Z,44.09
2019-03-15T05:35:28.818Z,43.77
2019-03-15T05:36:33.566Z,43.32
2019-03-15T05:37:38.435Z,44.13
2019-03-15T05:38:44.076Z,44.57
2019-03-15T05:39:49.654Z,43.93
2019-03-15T05:40:54.678Z,44.46
2019-03-15T05:41:59.738Z,44.45
2019-03-15T05:43:05.210Z,43.77
2019-03-15T05:44:10.943Z,44.54
2019-03-15T05:45:15.991Z,43.65
2019-03-15T05:46:21.576Z,43.24
2019-03-15T05:47:26.317Z,43.47
2019-03-15T05:48:31.619Z,43.46
2019-03-15T05:49:36.643Z,43.82
2019-03-15T05:50:41.716Z,43.72
2019-03-15T05:51:46.692Z,42.93
2019-03-15T05:52:51.979Z,43.18
2019-03-15T05:53:57.623Z,42.81
2019-03-15T05:55:02.752Z,43.09
2019-03-15T05:56:08.202Z,43.33
2019-03-15T05:57:13.223Z,42.79
2019-03-15T05:58:18.179Z,42.83
2019-03-15T05:59:23.334Z,43.03
2019-03-15T06:00:28.044Z,43.07
2019-03-15T06:01:33.435Z,42.85
2019-03-15T06:02:38.217Z,43.59
2019-03-15T06:03:48.990Z,42.92
2019-03-15T06:04:50.616Z,43.08
2019-03-15T06:05:56.230Z,43.86
2019-03-15T06:07:01.560Z,43.41
2019-03-15T06:08:06.566Z,43.20
2019-03-15T06:09:11.820Z,43.48
2019-03-15T06:10:17.082Z,43.00
2019-03-15T06:11:22.065Z,43.68
2019-03-15T06:12:27.112Z,44.18
2019-03-15T06:13:32.072Z,44.20
2019-03-15T06:14:37.674Z,43.89
2019-03-15T06:15:42.701Z,44.06
2019-03-15T06:16:47.405Z,44.08
2019-03-15T06:17:52.178Z,43.87
2019-03-15T06:18:57.269Z,43.53
2019-03-15T06:20:02.769Z,44.30
2019-03-15T06:21:07.715Z,44.38
2019-03-15T06:22:12.701Z,44.67
2019-03-15T06:23:17.674Z,44.37
2019-03-15T06:24:23.413Z,45.20
2019-03-15T06:25:28.564Z,45.59
2019-03-15T06:26:33.725Z,45.98
2019-03-15T06:27:38.715Z,46.14
2019-03-15T06:28:43.727Z,45.31
2019-03-15T06:29:48.695Z,45.57
2019-03-15T06:30:54.023Z,45.85
2019-03-15T06:31:59.709Z,45.69
2019-03-15T06:33:04.693Z,45.51
2019-03-15T06:34:09.665Z,46.37
2019-03-15T06:35:14.656Z,46.24
2019-03-15T06:36:19.981Z,46.49
2019-03-15T06:37:25.266Z,46.75
2019-03-15T06:38:33.312Z,46.63
2019-03-15T06:39:37.493Z,46.64
2019-03-15T06:40:42.532Z,47.44
2019-03-15T06:41:47.552Z,46.60
2019-03-15T06:42:52.986Z,46.60
2019-03-15T06:43:58.552Z,46.60
2019-03-15T06:45:03.811Z,45.99
2019-03-15T06:46:08.893Z,46.05
2019-03-15T06:47:13.952Z,47.02
2019-03-15T06:48:18.758Z,46.88
2019-03-15T06:49:24.423Z,46.51
2019-03-15T06:50:29.448Z,47.02
2019-03-15T06:51:34.117Z,46.81
2019-03-15T06:52:39.120Z,45.99
2019-03-15T06:53:47.683Z,47.09
2019-03-15T06:54:51.264Z,46.63
2019-03-15T06:55:55.998Z,46.16
2019-03-15T06:57:00.957Z,46.24
2019-03-15T06:58:05.943Z,46.71
2019-03-15T06:59:11.589Z,46.78
2019-03-15T07:00:16.117Z,46.52
2019-03-15T07:01:21.620Z,46.15
2019-03-15T07:02:27.313Z,47.83
2019-03-15T07:03:32.824Z,47.34
2019-03-15T07:04:37.712Z,47.15
2019-03-15T07:05:43.191Z,47.53
2019-03-15T07:06:48.494Z,46.83
2019-03-15T07:07:53.458Z,47.13
2019-03-15T07:08:58.769Z,47.12
2019-03-15T07:10:04.526Z,46.12
2019-03-15T07:11:09.310Z,45.89
2019-03-15T07:12:14.078Z,45.98
2019-03-15T07:13:18.776Z,45.67
2019-03-15T07:14:23.482Z,45.69
2019-03-15T07:15:28.247Z,45.64
2019-03-15T07:16:33.203Z,46.24
2019-03-15T07:17:38.525Z,46.36
2019-03-15T07:18:44.011Z,45.82
2019-03-15T07:19:49.275Z,46.25
2019-03-15T07:20:54.279Z,46.17
2019-03-15T07:21:59.601Z,47.22
2019-03-15T07:23:04.110Z,46.70
2019-03-15T07:24:09.830Z,46.13
2019-03-15T07:25:14.666Z,45.85
2019-03-15T07:26:19.150Z,47.07
2019-03-15T07:27:24.476Z,46.64
2019-03-15T07:28:29.551Z,47.15
2019-03-15T07:29:34.599Z,46.79
2019-03-15T07:30:39.357Z,45.98
2019-03-15T07:31:44.415Z,45.91
2019-03-15T07:32:49.677Z,45.91
2019-03-15T07:33:54.678Z,46.38
2019-03-15T07:34:59.446Z,47.16
2019-03-15T07:36:04.546Z,46.12
2019-03-15T07:37:09.523Z,46.20
2019-03-15T07:38:14.851Z,45.74
2019-03-15T07:39:20.189Z,46.09
2019-03-15T07:40:24.893Z,47.16
2019-03-15T07:41:30.190Z,46.07
2019-03-15T07:42:35.601Z,45.29
2019-03-15T07:43:41.058Z,46.06
2019-03-15T07:44:48.855Z,46.83
2019-03-15T07:45:53.006Z,46.99
2019-03-15T07:46:58.008Z,46.57
2019-03-15T07:48:03.188Z,47.91
2019-03-15T07:49:07.888Z,47.08
2019-03-15T07:50:14.273Z,47.08
2019-03-15T07:51:18.999Z,47.09
2019-03-15T07:52:24.098Z,47.47
2019-03-15T07:53:29.621Z,46.88
2019-03-15T07:54:38.361Z,48.00
2019-03-15T07:55:41.449Z,48.96
2019-03-15T07:56:46.426Z,48.11
2019-03-15T07:57:51.140Z,48.93
2019-03-15T07:58:56.526Z,48.25
2019-03-15T08:00:02.133Z,49.49
2019-03-15T08:01:07.156Z,49.35
2019-03-15T08:02:11.904Z,49.56
2019-03-15T08:03:17.059Z,48.49
2019-03-15T08:04:22.419Z,49.07
2019-03-15T08:05:27.952Z,48.40
2019-03-15T08:06:35.041Z,49.82
2019-03-15T08:07:45.357Z,48.41
2019-03-15T08:08:46.771Z,48.05
2019-03-15T08:09:52.125Z,48.63
2019-03-15T08:10:57.111Z,48.19
2019-03-15T08:12:02.704Z,49.75
2019-03-15T08:13:07.952Z,48.69
2019-03-15T08:14:13.241Z,47.91
2019-03-15T08:15:17.997Z,48.29
2019-03-15T08:16:23.172Z,48.06
2019-03-15T08:17:27.692Z,47.61
2019-03-15T08:18:32.419Z,47.48
2019-03-15T08:19:37.578Z,48.06
2019-03-15T08:20:42.878Z,48.00
2019-03-15T08:21:47.880Z,49.35
2019-03-15T08:22:53.186Z,48.94
2019-03-15T08:23:58.143Z,48.26
2019-03-15T08:25:03.561Z,49.46
2019-03-15T08:26:08.758Z,48.59
2019-03-15T08:27:16.118Z,48.26
2019-03-15T08:28:20.227Z,48.00
2019-03-15T08:29:25.279Z,47.81
2019-03-15T08:30:30.529Z,47.58
2019-03-15T08:31:35.502Z,48.08
2019-03-15T08:32:43.521Z,48.34
2019-03-15T08:33:47.051Z,48.93
2019-03-15T08:34:52.073Z,48.26
2019-03-15T08:35:57.629Z,48.23
2019-03-15T08:37:02.346Z,48.45
2019-03-15T08:38:07.609Z,48.52
2019-03-15T08:39:12.905Z,48.65
2019-03-15T08:40:17.702Z,48.21
2019-03-15T08:41:23.276Z,47.81
2019-03-15T08:42:28.527Z,48.23
2019-03-15T08:43:34.085Z,48.13
2019-03-15T08:44:39.081Z,47.82
2019-03-15T08:45:43.891Z,48.87
2019-03-15T08:46:48.824Z,48.46
2019-03-15T08:47:53.871Z,48.42
2019-03-15T08:48:59.165Z,48.14
2019-03-15T08:50:04.033Z,48.28
2019-03-15T08:51:10.741Z,48.76
2019-03-15T08:52:16.093Z,48.36
2019-03-15T08:53:21.069Z,48.84
2019-03-15T08:54:26.032Z,48.71
2019-03-15T08:55:31.578Z,48.24
2019-03-15T08:56:36.321Z,48.84
2019-03-15T08:57:41.676Z,49.17
2019-03-15T08:58:46.638Z,48.76
2019-03-15T08:59:57.012Z,48.58
2019-03-15T09:00:58.921Z,48.63
2019-03-15T09:02:03.954Z,48.24
2019-03-15T09:03:09.063Z,48.13
2019-03-15T09:04:14.164Z,48.75
2019-03-15T09:05:18.632Z,50.22
2019-03-15T09:06:23.975Z,49.40
2019-03-15T09:07:28.659Z,49.89
2019-03-15T09:08:33.139Z,50.34
2019-03-15T09:09:38.170Z,51.49
2019-03-15T09:10:43.484Z,51.62
2019-03-15T09:11:48.810Z,52.43
2019-03-15T09:12:53.778Z,52.47
2019-03-15T09:13:59.069Z,53.15
2019-03-15T09:15:04.363Z,52.59
2019-03-15T09:16:09.635Z,52.15
2019-03-15T09:17:14.614Z,53.78
2019-03-15T09:18:19.603Z,52.29
2019-03-15T09:19:24.652Z,52.32
2019-03-15T09:20:30.780Z,52.47
2019-03-15T09:21:36.158Z,52.63
2019-03-15T09:22:41.564Z,53.12
2019-03-15T09:23:46.561Z,52.45
2019-03-15T09:24:51.834Z,52.40
2019-03-15T09:25:56.810Z,50.74
2019-03-15T09:27:01.314Z,50.15
2019-03-15T09:28:06.011Z,51.84
2019-03-15T09:29:11.261Z,52.20
2019-03-15T09:30:23.412Z,51.91
2019-03-15T09:31:22.350Z,51.01
2019-03-15T09:32:27.704Z,52.31
2019-03-15T09:33:33.030Z,52.63
2019-03-15T09:34:37.749Z,53.13
2019-03-15T09:35:43.010Z,51.44
2019-03-15T09:36:50.324Z,52.62
2019-03-15T09:37:55.308Z,54.32
2019-03-15T09:39:00.674Z,53.24
2019-03-15T09:40:05.843Z,53.18
2019-03-15T09:41:11.071Z,52.48
2019-03-15T09:42:15.999Z,52.16
2019-03-15T09:43:21.286Z,52.64
2019-03-15T09:44:26.325Z,52.64
2019-03-15T09:45:31.308Z,53.52
2019-03-15T09:46:36.304Z,53.19
2019-03-15T09:47:41.568Z,52.61
2019-03-15T09:48:47.194Z,52.06
2019-03-15T09:49:52.195Z,52.96
2019-03-15T09:50:57.158Z,54.30
2019-03-15T09:52:02.197Z,52.52
2019-03-15T09:53:07.228Z,52.98
2019-03-15T09:54:12.222Z,52.55
2019-03-15T09:55:16.915Z,53.43
2019-03-15T09:56:21.805Z,52.30
2019-03-15T09:57:26.512Z,52.18
2019-03-15T09:58:31.505Z,51.42
2019-03-15T09:59:36.229Z,53.02
2019-03-15T10:00:41.476Z,52.29
2019-03-15T10:01:46.544Z,51.90
2019-03-15T10:02:51.671Z,52.00
2019-03-15T10:03:56.676Z,53.33
2019-03-15T10:05:11.023Z,53.14
2019-03-15T10:06:15.371Z,53.18
2019-03-15T10:07:15.433Z,53.96
2019-03-15T10:08:23.284Z,53.19
2019-03-15T10:09:26.708Z,53.16
2019-03-15T10:10:31.969Z,52.03
2019-03-15T10:11:36.763Z,53.52
2019-03-15T10:12:42.822Z,53.22
2019-03-15T10:13:47.908Z,52.49
2019-03-15T10:14:53.198Z,51.95
2019-03-15T10:15:58.455Z,52.43
2019-03-15T10:17:03.473Z,53.03
2019-03-15T10:18:08.556Z,52.60
2019-03-15T10:19:13.629Z,53.06
2019-03-15T10:20:18.927Z,52.81
2019-03-15T10:21:24.486Z,53.16
2019-03-15T10:22:28.971Z,51.15
2019-03-15T10:23:34.239Z,53.63
2019-03-15T10:24:39.542Z,52.90
2019-03-15T10:25:50.793Z,52.79
2019-03-15T10:26:53.029Z,52.72
2019-03-15T10:27:58.402Z,51.51
2019-03-15T10:29:14.554Z,52.36
2019-03-15T10:30:11.752Z,51.49
2019-03-15T10:31:16.452Z,51.06
2019-03-15T10:32:21.487Z,52.07
2019-03-15T10:33:25.916Z,52.36
2019-03-15T10:34:30.976Z,53.83
2019-03-15T10:35:35.941Z,52.07
2019-03-15T10:36:41.192Z,53.32
2019-03-15T10:37:48.467Z,52.82
2019-03-15T10:38:53.448Z,52.57
2019-03-15T10:39:58.419Z,52.95
2019-03-15T10:41:03.441Z,53.50
2019-03-15T10:42:08.180Z,54.72
2019-03-15T10:43:13.148Z,53.05
2019-03-15T10:44:17.964Z,53.69
2019-03-15T10:45:22.912Z,52.91
2019-03-15T10:46:28.498Z,52.54
2019-03-15T10:47:33.792Z,54.51
2019-03-15T10:48:39.371Z,51.98
2019-03-15T10:49:44.411Z,52.48
2019-03-15T10:50:49.381Z,52.52
2019-03-15T10:51:54.065Z,53.77
2019-03-15T10:52:59.448Z,52.40
2019-03-15T10:54:04.244Z,52.58
2019-03-15T10:55:09.327Z,54.35
2019-03-15T10:56:14.296Z,53.96
2019-03-15T10:57:19.331Z,52.68
2019-03-15T10:58:24.356Z,52.81
2019-03-15T10:59:29.922Z,53.70
2019-03-15T11:00:35.052Z,52.59
2019-03-15T11:01:40.441Z,53.10
2019-03-15T11:02:46.006Z,52.56
2019-03-15T11:03:51.556Z,53.03
2019-03-15T11:04:56.836Z,52.48
2019-03-15T11:06:02.371Z,53.29
2019-03-15T11:07:07.097Z,53.19
2019-03-15T11:08:12.081Z,52.79
2019-03-15T11:09:17.289Z,52.95
2019-03-15T11:10:22.004Z,52.25
2019-03-15T11:11:27.421Z,51.63
2019-03-15T11:12:32.452Z,53.29
2019-03-15T11:13:36.892Z,52.99
2019-03-15T11:14:41.617Z,52.79
2019-03-15T11:15:46.941Z,52.40
2019-03-15T11:16:51.944Z,52.11
2019-03-15T11:17:57.563Z,52.19
2019-03-15T11:19:02.551Z,52.87
2019-03-15T11:20:07.740Z,51.72
2019-03-15T11:21:12.773Z,52.04
2019-03-15T11:22:18.000Z,51.79
2019-03-15T11:23:23.272Z,52.92
2019-03-15T11:24:28.324Z,52.27
2019-03-15T11:25:33.381Z,51.94
2019-03-15T11:26:38.933Z,51.96
2019-03-15T11:27:44.229Z,51.78
2019-03-15T11:28:49.469Z,52.57
2019-03-15T11:29:54.607Z,51.98
2019-03-15T11:31:00.783Z,52.19
2019-03-15T11:32:05.477Z,51.79
2019-03-15T11:33:10.448Z,53.22
2019-03-15T11:34:15.422Z,52.56
2019-03-15T11:35:21.408Z,52.30
2019-03-15T11:36:26.669Z,51.85
2019-03-15T11:37:31.436Z,51.56
2019-03-15T11:38:36.666Z,51.92
2019-03-15T11:39:42.207Z,51.12
2019-03-15T11:40:46.904Z,51.86
2019-03-15T11:41:51.783Z,51.90
2019-03-15T11:42:57.178Z,52.19
2019-03-15T11:44:02.159Z,52.27
2019-03-15T11:45:07.615Z,52.00
2019-03-15T11:46:16.297Z,52.31
2019-03-15T11:47:19.949Z,52.41
2019-03-15T11:48:25.394Z,52.21
2019-03-15T11:49:30.692Z,53.75
2019-03-15T11:50:35.652Z,52.88
2019-03-15T11:51:42.547Z,53.07
2019-03-15T11:52:47.867Z,52.35
2019-03-15T11:53:52.939Z,52.39
2019-03-15T11:54:58.532Z,53.13
2019-03-15T11:56:03.230Z,53.05
2019-03-15T11:57:08.513Z,52.83
2019-03-15T11:58:13.570Z,52.95
2019-03-15T11:59:18.944Z,52.53
2019-03-15T12:00:23.964Z,52.58
2019-03-15T12:01:28.678Z,51.90
2019-03-15T12:02:33.648Z,54.95
2019-03-15T12:03:52.081Z,54.38
2019-03-15T12:04:45.278Z,52.97
2019-03-15T12:05:49.734Z,53.16
2019-03-15T12:06:54.754Z,52.02
2019-03-15T12:07:59.734Z,52.62
2019-03-15T12:09:05.159Z,52.24
2019-03-15T12:10:10.668Z,52.24
2019-03-15T12:11:15.690Z,53.07
2019-03-15T12:12:21.809Z,53.53
2019-03-15T12:13:27.104Z,53.47
2019-03-15T12:14:40.828Z,54.56
2019-03-15T12:15:39.251Z,52.93
2019-03-15T12:16:44.667Z,53.20
2019-03-15T12:17:49.443Z,53.46
2019-03-15T12:18:54.141Z,54.56
2019-03-15T12:19:58.843Z,54.10
2019-03-15T12:21:03.915Z,53.58
2019-03-15T12:22:08.700Z,53.77
2019-03-15T12:23:13.678Z,53.07
2019-03-15T12:24:19.164Z,52.67
2019-03-15T12:25:24.514Z,52.57
2019-03-15T12:26:39.736Z,52.32
2019-03-15T12:27:36.322Z,52.82
2019-03-15T12:28:41.298Z,52.81
2019-03-15T12:29:46.042Z,53.36
2019-03-15T12:30:51.291Z,53.54
2019-03-15T12:31:56.520Z,53.10
2019-03-15T12:33:01.494Z,53.51
2019-03-15T12:34:07.004Z,52.79
2019-03-15T12:35:11.845Z,53.16
2019-03-15T12:36:16.922Z,50.93
2019-03-15T12:37:21.690Z,51.70
2019-03-15T12:38:26.391Z,52.16
2019-03-15T12:39:31.690Z,53.08
2019-03-15T12:40:36.707Z,53.00
2019-03-15T12:41:41.734Z,54.31
2019-03-15T12:42:46.262Z,53.07
2019-03-15T12:43:50.794Z,53.55
2019-03-15T12:44:55.806Z,53.80
2019-03-15T12:46:01.259Z,53.47
2019-03-15T12:47:06.418Z,53.71
2019-03-15T12:48:11.188Z,52.90
2019-03-15T12:49:16.351Z,52.50
2019-03-15T12:50:21.064Z,53.47
2019-03-15T12:51:32.157Z,53.17
2019-03-15T12:52:41.953Z,52.08
2019-03-15T12:53:39.339Z,52.02
2019-03-15T12:54:44.392Z,51.65
2019-03-15T12:55:49.343Z,52.48
2019-03-15T12:56:54.351Z,51.90
2019-03-15T12:57:59.560Z,51.99
2019-03-15T12:59:04.589Z,52.01
2019-03-15T13:00:11.873Z,52.61
2019-03-15T13:01:16.825Z,52.59
2019-03-15T13:02:21.933Z,52.59
2019-03-15T13:03:27.291Z,53.44
2019-03-15T13:04:31.829Z,53.80
2019-03-15T13:05:36.941Z,52.98
2019-03-15T13:06:41.657Z,54.10
2019-03-15T13:07:46.206Z,55.00
2019-03-15T13:08:50.933Z,54.00
2019-03-15T13:09:56.542Z,54.61
2019-03-15T13:11:01.814Z,54.47
2019-03-15T13:12:06.804Z,53.88
2019-03-15T13:13:12.012Z,54.67
2019-03-15T13:14:16.960Z,53.70
2019-03-15T13:15:22.026Z,53.23
2019-03-15T13:16:27.095Z,52.53
2019-03-15T13:17:31.971Z,52.79
2019-03-15T13:18:37.269Z,52.13
2019-03-15T13:19:54.541Z,52.82
2019-03-15T13:20:49.089Z,52.67
2019-03-15T13:21:53.803Z,53.63
2019-03-15T13:22:58.782Z,53.76
2019-03-15T13:24:03.314Z,53.40
2019-03-15T13:25:08.813Z,52.76
2019-03-15T13:26:14.440Z,52.59
2019-03-15T13:27:19.659Z,52.06
2019-03-15T13:28:25.008Z,53.50
2019-03-15T13:29:29.766Z,52.04
2019-03-15T13:30:34.776Z,51.51
2019-03-15T13:31:40.235Z,52.90
2019-03-15T13:32:45.258Z,53.34
2019-03-15T13:33:50.271Z,52.06
2019-03-15T13:34:55.547Z,52.43
2019-03-15T13:36:00.903Z,52.39
2019-03-15T13:37:05.851Z,52.98
2019-03-15T13:38:10.851Z,52.55
2019-03-15T13:39:15.904Z,52.89
2019-03-15T13:40:20.607Z,52.65
2019-03-15T13:41:26.145Z,52.85
2019-03-15T13:42:30.853Z,52.58
2019-03-15T13:43:36.121Z,51.62
2019-03-15T13:44:41.735Z,51.80
2019-03-15T13:45:46.815Z,52.17
2019-03-15T13:46:52.084Z,52.62
2019-03-15T13:47:57.410Z,53.25
2019-03-15T13:49:02.598Z,52.22
2019-03-15T13:50:08.424Z,52.29
2019-03-15T13:51:14.032Z,52.52
2019-03-15T13:52:18.760Z,52.71
2019-03-15T13:53:23.356Z,53.23
2019-03-15T13:54:28.623Z,52.80
2019-03-15T13:55:33.419Z,53.72
2019-03-15T13:56:38.679Z,53.12
2019-03-15T13:57:44.077Z,52.35
2019-03-15T13:58:56.981Z,50.76
2019-03-15T13:59:56.126Z,52.12